Time;durP1;ratioP1;P1;durP2;ratioP2;P2;SDS_P1;SDS_P2;PMS_P1;PMS_P2;Temp;Humidity;BMP_temperature;BMP_pressure;BME280_temperature;BME280_humidity;BME280_pressure;Samples;Min_cycle;Max_cycle;Signal;HPM_P1;HPM_P2
2022/12/04 00:02:53;;;;;;;43.38;21.88;;;4.50;58.60;;;3.03;62.41;101856.03;12193826;19;20871;-82
2022/12/04 00:06:55;;;;;;;55.67;25.23;;;4.50;58.70;;;3.08;62.43;101866.34;12186226;19;20440;-82
2022/12/04 00:10:57;;;;;;;45.33;23.50;;;4.50;58.70;;;3.06;62.41;101871.50;12201733;19;20133;-82
2022/12/04 00:14:59;;;;;;;42.50;21.45;;;4.60;58.70;;;3.06;62.34;101866.31;12202590;19;20011;-82
2022/12/04 00:19:00;;;;;;;48.50;23.25;;;4.50;58.70;;;3.04;62.58;101870.63;12195011;19;20325;-82
2022/12/04 00:23:02;;;;;;;57.22;25.48;;;4.50;58.70;;;2.95;62.61;101850.06;12193533;19;20015;-82
2022/12/04 00:27:04;;;;;;;46.92;20.70;;;4.50;58.70;;;2.93;62.41;101845.75;12193919;19;20918;-81
2022/12/04 00:31:09;;;;;;;60.33;28.98;;;4.50;58.70;;;2.97;62.35;101852.59;12191658;19;20083;-82
2022/12/04 00:35:11;;;;;;;53.00;24.20;;;4.70;59.00;;;3.06;62.54;101862.91;12190150;19;20023;-81
2022/12/04 00:39:13;;;;;;;57.85;27.77;;;4.60;58.90;;;3.04;62.48;101854.28;12192289;19;20094;-82
2022/12/04 00:43:14;;;;;;;67.35;32.03;;;4.60;59.00;;;2.95;62.40;101844.91;12189040;19;20304;-82
2022/12/04 00:47:16;;;;;;;56.38;27.90;;;4.50;59.00;;;3.00;62.68;101853.47;12189550;19;20368;-81
2022/12/04 00:51:22;;;;;;;65.90;29.65;;;4.50;59.00;;;3.00;62.63;101850.88;12188685;19;20052;-82
2022/12/04 00:55:24;;;;;;;66.03;30.27;;;4.50;59.20;;;2.94;62.57;101842.31;12187833;19;20014;-81
2022/12/04 00:59:26;;;;;;;66.80;29.33;;;4.50;59.20;;;3.02;62.59;101846.56;12194071;19;20752;-81
2022/12/04 01:03:28;;;;;;;52.38;25.27;;;4.50;59.10;;;3.05;62.71;101856.00;12196125;19;20306;-82
2022/12/04 01:07:30;;;;;;;52.35;24.35;;;4.50;59.10;;;2.97;62.64;101843.16;12194358;19;20015;-82
2022/12/04 01:11:32;;;;;;;53.17;22.13;;;4.50;59.10;;;3.07;62.64;101857.72;12196894;19;20025;-82
2022/12/04 01:15:39;;;;;;;54.47;25.58;;;4.50;59.00;;;3.08;62.50;101868.91;12192766;19;20014;-82
2022/12/04 01:19:41;;;;;;;42.65;21.92;;;4.50;58.80;;;3.07;62.67;101865.44;12190366;19;20455;-82
2022/12/04 01:23:44;;;;;;;44.72;21.42;;;4.60;59.10;;;3.06;62.78;101858.59;12196557;19;20289;-81
2022/12/04 01:27:46;;;;;;;59.85;26.45;;;4.50;59.10;;;3.03;62.55;101847.44;12196780;19;20025;-82
2022/12/04 01:31:47;;;;;;;51.38;23.35;;;4.50;59.20;;;3.08;62.70;101848.28;12208776;19;20967;-82
2022/12/04 01:35:55;;;;;;;53.10;24.88;;;4.50;59.20;;;2.95;62.81;101834.56;12205721;19;20037;-81
2022/12/04 01:39:57;;;;;;;50.08;22.98;;;4.60;59.20;;;3.08;62.71;101845.69;12202559;19;20036;-82
2022/12/04 01:44:07;;;;;;;49.33;22.00;;;4.60;59.20;;;3.08;62.61;101837.94;12197250;19;20053;-82
2022/12/04 01:48:30;;;;;;;63.70;27.77;;;4.60;59.20;;;3.09;62.64;101837.06;12196840;19;20022;-83
2022/12/04 01:52:32;;;;;;;55.38;23.85;;;4.60;59.30;;;3.03;62.71;101839.69;12196726;19;20043;-82
2022/12/04 01:56:56;;;;;;;46.55;22.10;;;4.60;59.20;;;3.07;62.58;101836.22;12192162;19;20014;-81
2022/12/04 02:01:03;;;;;;;54.95;25.33;;;4.60;59.30;;;3.06;62.77;101827.63;12196862;19;20011;-81
2022/12/04 02:05:12;;;;;;;51.42;22.98;;;4.60;59.60;;;3.08;62.85;101837.94;12188491;19;20748;-81
2022/12/04 02:09:15;;;;;;;56.83;25.73;;;4.60;59.30;;;3.03;62.69;101822.47;12188356;19;20883;-81
2022/12/04 02:14:08;;;;;;;62.58;28.80;;;4.60;59.40;;;3.10;62.58;101823.28;12194429;19;20029;-82
2022/12/04 02:18:36;;;;;;;59.13;28.25;;;4.60;59.50;;;3.01;62.72;101800.97;12185162;19;20019;-81
2022/12/04 02:22:54;;;;;;;55.30;23.60;;;4.50;59.40;;;3.10;62.56;101813.81;12192578;19;20018;-82
2022/12/04 02:27:07;;;;;;;62.28;27.67;;;4.60;59.40;;;3.05;62.71;101799.22;12190725;19;20029;-82
2022/12/04 02:31:17;;;;;;;59.65;26.45;;;4.50;59.50;;;3.04;62.60;101798.38;12192363;19;20319;-82
2022/12/04 02:35:30;;;;;;;52.03;24.38;;;4.70;59.50;;;2.99;62.97;101788.97;12193008;19;20023;-82
2022/12/04 02:40:02;;;;;;;54.15;25.95;;;4.70;59.50;;;3.09;62.84;101800.94;12192923;19;20018;-81
2022/12/04 02:44:37;;;;;;;79.47;32.55;;;4.60;59.50;;;3.09;62.70;101796.63;12187190;19;20081;-81
2022/12/04 02:48:42;;;;;;;67.85;31.17;;;4.60;59.70;;;2.73;62.80;101722.94;12188228;19;20782;-82
2022/12/04 02:53:04;;;;;;;75.57;32.50;;;4.50;59.70;;;3.03;62.74;101777.78;12185813;19;20022;-81
2022/12/04 02:57:14;;;;;;;63.00;28.35;;;4.50;59.70;;;3.02;62.77;101774.31;12182503;19;20047;-82
2022/12/04 03:01:23;;;;;;;63.47;28.70;;;4.50;59.70;;;3.03;62.97;101777.78;12190028;19;20289;-81
2022/12/04 03:05:42;;;;;;;66.88;31.38;;;4.50;59.80;;;3.00;62.93;101776.06;12187445;19;20944;-81
2022/12/04 03:09:55;;;;;;;51.45;23.73;;;4.50;59.80;;;3.06;62.98;101782.91;12189032;19;20769;-81
2022/12/04 03:14:07;;;;;;;48.88;23.83;;;4.60;59.70;;;3.05;62.94;101773.44;12189387;19;20021;-81
2022/12/04 03:18:20;;;;;;;60.42;28.23;;;4.50;59.60;;;3.06;63.03;101772.59;12192104;19;20572;-81
2022/12/04 03:22:23;;;;;;;56.42;27.50;;;4.60;59.70;;;3.12;62.93;101779.41;12189418;19;20746;-82
2022/12/04 03:27:30;;;;;;;55.15;24.35;;;4.60;59.70;;;3.12;63.01;101772.53;12193044;19;20042;-81
2022/12/04 03:31:43;;;;;;;51.05;23.67;;;4.60;59.70;;;3.12;62.94;101771.69;12203349;19;20026;-81
2022/12/04 03:36:12;;;;;;;45.88;21.00;;;4.60;59.70;;;3.13;62.96;101774.22;12197449;19;20014;-82
2022/12/04 03:40:45;;;;;;;48.50;23.77;;;4.60;59.50;;;3.19;62.95;101771.63;12197152;19;20028;-81
2022/12/04 03:44:56;;;;;;;46.95;21.17;;;4.70;59.70;;;3.21;63.09;101780.19;12194986;19;20018;-81
2022/12/04 03:49:15;;;;;;;53.97;25.42;;;4.60;59.60;;;3.23;62.97;101782.78;12191964;19;20458;-81
2022/12/04 03:53:51;;;;;;;47.30;23.33;;;4.70;59.70;;;3.18;63.01;101774.19;12190985;19;20018;-82
2022/12/04 03:57:58;;;;;;;60.90;29.83;;;4.70;59.70;;;3.19;63.05;101768.19;12188872;19;20018;-81
2022/12/04 04:02:02;;;;;;;62.60;28.52;;;4.90;59.90;;;3.07;62.94;101745.91;12188942;19;20014;-82
2022/12/04 04:06:16;;;;;;;46.63;22.17;;;4.80;59.90;;;3.15;62.96;101763.91;12185108;19;20443;-82
2022/12/04 04:10:23;;;;;;;55.75;26.30;;;4.70;59.70;;;3.21;63.18;101766.44;12185486;19;20015;-82
2022/12/04 04:24:24;;;;;;;45.35;20.48;;;4.70;59.70;;;3.25;63.30;101773.31;12191630;19;20036;-81
2022/12/04 04:28:37;;;;;;;53.30;25.52;;;4.70;59.60;;;3.17;63.04;101754.44;12186276;19;20019;-82
2022/12/04 04:33:08;;;;;;;52.30;25.08;;;4.70;59.70;;;3.21;63.12;101759.53;12191529;19;20038;-82
2022/12/04 04:38:01;;;;;;;53.63;25.70;;;4.70;59.70;;;3.23;63.21;101765.56;12192150;19;20099;-82
2022/12/04 04:42:33;;;;;;;43.42;21.63;;;4.70;59.70;;;3.15;63.12;101758.75;12194519;19;20408;-82
2022/12/04 04:46:43;;;;;;;42.05;20.02;;;4.70;59.60;;;3.22;62.98;101763.00;12186774;19;20534;-82
2022/12/04 04:50:46;;;;;;;54.38;23.73;;;4.70;59.50;;;3.19;63.23;101755.28;12191729;19;20030;-82
2022/12/04 04:54:48;;;;;;;48.08;23.45;;;4.70;59.70;;;3.14;63.19;101731.25;12190619;19;20011;-81
2022/12/04 04:58:50;;;;;;;51.30;23.40;;;5.10;59.90;;;3.26;63.17;101764.69;12201528;19;20027;-81
2022/12/04 05:02:52;;;;;;;48.17;23.42;;;4.70;59.70;;;3.27;63.13;101763.81;12203567;19;20468;-81
2022/12/04 05:06:53;;;;;;;49.15;23.35;;;4.70;59.70;;;3.30;63.13;101764.66;12195484;19;20379;-82
2022/12/04 05:10:55;;;;;;;46.60;22.35;;;5.00;59.80;;;3.28;63.17;101757.78;12200215;19;20022;-82
2022/12/04 05:14:57;;;;;;;45.15;21.15;;;4.90;59.70;;;3.21;63.19;101763.84;12196837;19;20018;-81
2022/12/04 05:23:19;;;;;;;55.03;24.83;;;5.00;59.70;;;3.33;63.38;101774.09;12192139;19;20375;-82
2022/12/04 05:27:22;;;;;;;50.08;23.33;;;4.80;59.70;;;3.29;63.18;101759.47;12189701;19;20014;-81
2022/12/04 05:31:24;;;;;;;40.40;19.23;;;4.90;59.70;;;3.35;63.16;101769.78;12186969;19;20837;-81
2022/12/04 05:35:26;;;;;;;46.28;22.02;;;4.80;59.60;;;3.36;63.39;101766.31;12181970;19;20015;-81
2022/12/04 05:39:28;;;;;;;47.88;22.65;;;4.80;59.70;;;3.44;63.28;101769.69;12180086;19;20014;-81
2022/12/04 05:43:30;;;;;;;47.10;21.52;;;4.90;59.70;;;3.48;63.13;101779.13;12182371;19;20747;-81
2022/12/04 05:47:41;;;;;;;49.42;23.92;;;4.90;59.60;;;3.48;63.12;101778.25;12179583;19;20383;-83
2022/12/04 05:51:42;;;;;;;43.65;22.65;;;4.90;59.70;;;3.48;63.12;101768.81;12177937;19;20015;-81
2022/12/04 05:55:54;;;;;;;47.17;22.80;;;4.90;59.70;;;3.37;63.03;101754.25;12179230;19;20022;-82
2022/12/04 05:59:56;;;;;;;53.70;24.88;;;5.10;59.80;;;3.42;63.05;101762.81;12179017;19;20007;-83
2022/12/04 06:03:58;;;;;;;40.05;19.50;;;5.00;59.80;;;3.43;63.14;101760.25;12176879;19;20426;-83
2022/12/04 06:08:03;;;;;;;61.00;29.38;;;4.90;59.60;;;3.49;63.16;101765.34;12172359;19;20018;-83
2022/12/04 06:12:05;;;;;;;49.58;24.30;;;4.90;59.90;;;3.49;63.30;101764.50;12173259;19;20451;-83
2022/12/04 06:16:22;;;;;;;40.42;19.60;;;4.90;59.80;;;3.42;63.22;101750.75;12171368;19;20019;-83
2022/12/04 06:20:24;;;;;;;47.75;23.35;;;5.00;59.80;;;3.49;63.30;101765.34;12172425;19;20014;-83
2022/12/04 06:24:26;;;;;;;58.90;26.10;;;4.90;59.90;;;3.27;63.30;101723.38;12171194;19;20015;-83
2022/12/04 06:28:28;;;;;;;54.30;23.90;;;5.00;60.00;;;3.39;63.42;101742.19;12171410;19;20018;-83
2022/12/04 06:32:30;;;;;;;48.72;21.20;;;5.20;60.20;;;3.52;63.42;101759.28;12170596;19;20018;-83
2022/12/04 06:36:32;;;;;;;48.13;21.00;;;5.10;59.90;;;3.51;63.39;101762.72;12180312;19;20049;-83
2022/12/04 06:40:38;;;;;;;48.58;22.67;;;5.20;59.90;;;3.45;63.18;101748.16;12174429;19;20152;-83
2022/12/04 06:44:40;;;;;;;49.92;23.98;;;5.00;59.90;;;3.42;63.46;101742.16;12169905;19;20275;-83
2022/12/04 06:48:42;;;;;;;50.00;23.17;;;5.30;60.20;;;3.42;63.27;101739.59;12164086;19;20418;-82
2022/12/04 06:52:44;;;;;;;50.78;24.02;;;5.00;60.00;;;3.58;63.35;101760.97;12171483;19;20022;-83
2022/12/04 06:56:48;;;;;;;67.20;28.30;;;5.00;59.90;;;3.60;63.23;101759.22;12167987;19;20648;-83
2022/12/04 07:00:50;;;;;;;46.00;21.52;;;5.00;60.30;;;3.56;63.23;101758.38;12168943;19;20022;-84
2022/12/04 07:04:55;;;;;;;50.58;23.35;;;5.00;59.90;;;3.50;63.28;101755.88;12166742;19;20886;-84
2022/12/04 07:09:02;;;;;;;44.83;20.63;;;5.00;60.10;;;3.45;63.40;101740.41;12161499;19;20107;-83
2022/12/04 07:13:04;;;;;;;50.15;24.35;;;5.10;60.00;;;3.00;63.38;101652.22;12172569;19;20763;-82
2022/12/04 07:17:06;;;;;;;44.10;21.05;;;5.00;60.00;;;3.60;63.31;101748.91;12163282;19;20587;-84
2022/12/04 07:21:20;;;;;;;54.08;24.35;;;5.10;59.90;;;3.63;63.31;101756.63;12169883;19;20022;-83
2022/12/04 07:25:22;;;;;;;46.10;22.17;;;5.30;60.50;;;3.66;63.20;101762.59;12175398;19;20302;-84
2022/12/04 07:29:23;;;;;;;48.63;21.92;;;5.20;60.20;;;3.65;63.29;101757.47;12167475;19;20710;-83
2022/12/04 07:33:25;;;;;;;42.58;19.80;;;5.10;60.10;;;3.64;63.47;101750.56;12171285;19;20018;-82
2022/12/04 07:37:27;;;;;;;50.28;23.67;;;5.10;60.00;;;3.63;63.31;101756.63;12166138;19;20023;-83
2022/12/04 07:41:29;;;;;;;41.13;19.65;;;5.10;60.20;;;3.67;63.52;101769.50;12163967;19;20348;-82
2022/12/04 07:45:31;;;;;;;54.10;25.80;;;5.10;59.90;;;3.69;63.29;101759.13;12176794;19;20026;-83
2022/12/04 07:49:32;;;;;;;46.95;22.13;;;5.10;60.40;;;3.61;63.48;101742.84;12182987;19;20048;-83
2022/12/04 07:53:35;;;;;;;53.33;21.88;;;5.10;60.20;;;3.65;63.37;101760.03;12177757;19;20288;-83
2022/12/04 07:57:37;;;;;;;49.40;23.15;;;5.20;60.30;;;3.65;63.37;101767.78;12162825;19;20023;-83
2022/12/04 08:01:39;;;;;;;45.60;20.38;;;5.10;60.20;;;3.73;63.34;101779.75;12167900;19;20021;-83
2022/12/04 08:05:40;;;;;;;47.72;20.30;;;5.20;60.10;;;3.72;63.38;101780.59;12164639;19;20066;-84
2022/12/04 08:09:42;;;;;;;54.20;23.15;;;5.20;60.20;;;3.70;63.41;101766.00;12169878;19;20158;-84
2022/12/04 08:13:44;;;;;;;47.42;22.95;;;5.20;60.60;;;3.65;63.30;101760.91;12170633;19;20029;-84
2022/12/04 08:17:46;;;;;;;70.22;29.70;;;5.20;60.50;;;3.71;63.38;101771.16;12163951;19;20022;-84
2022/12/04 08:21:48;;;;;;;54.10;26.25;;;5.40;61.20;;;3.70;63.64;101774.63;12164583;19;20047;-83
2022/12/04 08:25:50;;;;;;;52.75;23.27;;;5.20;60.70;;;3.67;63.78;101772.06;12165510;19;20444;-85
2022/12/04 08:29:51;;;;;;;50.13;23.25;;;5.20;60.50;;;3.55;63.50;101754.94;12165340;19;20594;-85
2022/12/04 08:33:56;;;;;;;49.10;22.90;;;5.20;60.70;;;3.76;63.69;101782.31;12171642;19;20026;-84
2022/12/04 08:37:57;;;;;;;45.13;20.75;;;5.20;60.50;;;3.81;63.59;101783.97;12167771;19;20018;-84
2022/12/04 08:41:59;;;;;;;44.58;20.95;;;5.20;60.60;;;3.81;63.50;101791.72;12175684;19;20007;-84
2022/12/04 08:46:08;;;;;;;53.15;23.05;;;5.20;60.30;;;3.76;63.39;101773.69;12178422;19;20421;-83
2022/12/04 08:50:10;;;;;;;64.10;27.63;;;5.30;60.50;;;3.79;63.49;101773.66;12183301;19;20403;-84
2022/12/04 08:54:12;;;;;;;45.15;20.88;;;5.30;60.90;;;3.81;63.51;101786.56;12177797;19;20015;-84
2022/12/04 08:58:14;;;;;;;64.05;26.52;;;5.20;60.60;;;3.83;63.64;101787.41;12180128;19;20483;-83
2022/12/04 09:02:16;;;;;;;44.58;20.65;;;5.30;60.80;;;3.83;63.58;101780.50;12176892;19;20028;-82
2022/12/04 09:06:18;;;;;;;47.08;20.15;;;5.40;60.80;;;3.58;63.59;101745.47;12175974;19;20915;-85
2022/12/04 09:10:20;;;;;;;48.65;23.30;;;5.30;60.70;;;3.79;63.62;101773.66;12177307;19;20019;-83
2022/12/04 09:14:24;;;;;;;46.53;22.33;;;5.30;61.50;;;3.73;63.72;101768.56;12178820;19;20522;-83
2022/12/04 09:18:26;;;;;;;44.53;20.75;;;5.30;60.80;;;3.90;63.67;101797.66;12174557;19;20010;-83
2022/12/04 09:22:28;;;;;;;47.58;20.85;;;5.50;60.90;;;3.79;63.60;101780.56;12181673;19;20022;-83
2022/12/04 09:26:31;;;;;;;51.08;22.17;;;5.30;60.50;;;3.87;63.55;101787.38;12174064;19;20021;-84
2022/12/04 09:30:33;;;;;;;59.33;26.42;;;5.30;60.50;;;3.90;63.71;101789.91;12174518;19;20535;-83
2022/12/04 09:34:35;;;;;;;52.47;22.63;;;5.30;60.90;;;3.90;63.83;101784.75;12172921;19;20934;-83
2022/12/04 09:38:37;;;;;;;49.17;23.67;;;5.30;60.80;;;3.84;63.46;101761.56;12170054;19;20283;-83
2022/12/04 09:42:58;;;;;;;47.63;22.08;;;5.40;60.80;;;3.74;63.51;101745.28;12171345;19;20022;-84
2022/12/04 09:47:35;;;;;;;53.13;24.08;;;5.40;60.80;;;3.72;63.47;101741.84;12170582;19;20025;-83
2022/12/04 09:51:39;;;;;;;49.22;22.67;;;5.40;61.00;;;3.95;63.57;101754.53;12170619;19;20018;-84
2022/12/04 09:55:55;;;;;;;43.85;21.52;;;5.40;60.90;;;3.91;63.73;101752.84;12172216;19;20136;-83
2022/12/04 09:59:57;;;;;;;49.53;21.05;;;5.40;61.10;;;3.92;63.70;101744.25;12166590;19;20279;-83
2022/12/04 10:03:59;;;;;;;42.35;19.85;;;5.40;60.90;;;3.74;63.79;101708.28;12167753;19;20324;-84
2022/12/04 10:08:16;;;;;;;49.17;24.83;;;5.50;60.80;;;4.04;63.58;101760.47;12163680;19;20364;-83
2022/12/04 10:12:33;;;;;;;36.80;18.20;;;5.50;61.00;;;4.04;63.70;101769.09;12175958;19;20045;-83
2022/12/04 10:17:09;;;;;;;41.58;19.42;;;5.40;60.60;;;4.05;63.80;101764.75;12175083;19;20348;-83
2022/12/04 10:21:20;;;;;;;52.47;22.63;;;5.50;60.70;;;4.06;63.73;101758.75;12170172;19;20015;-84
2022/12/04 10:25:24;;;;;;;42.28;20.13;;;5.70;61.10;;;4.08;63.70;101746.63;12165709;19;20126;-83
2022/12/04 10:29:32;;;;;;;48.60;22.07;;;5.50;60.90;;;4.04;63.75;101732.91;12169108;19;20371;-84
2022/12/04 10:33:52;;;;;;;45.80;21.58;;;5.60;61.10;;;4.10;63.80;101737.13;12170763;19;20018;-83
2022/12/04 10:38:34;;;;;;;43.03;20.95;;;5.50;61.00;;;4.08;63.72;101737.19;12170500;19;20289;-83
2022/12/04 10:42:48;;;;;;;42.28;22.33;;;5.50;61.00;;;3.91;63.64;101701.19;12162699;19;20018;-83
2022/12/04 10:46:58;;;;;;;45.47;19.83;;;5.90;61.50;;;4.13;63.95;101721.59;12166224;19;20022;-83
2022/12/04 10:51:00;;;;;;;46.03;21.13;;;5.50;61.10;;;4.10;63.69;101706.13;12164381;19;20986;-83
2022/12/04 10:55:02;;;;;;;41.20;20.33;;;5.60;61.40;;;3.91;63.69;101664.16;12178937;19;20082;-84
2022/12/04 10:59:05;;;;;;;42.90;21.48;;;5.80;61.40;;;4.16;63.73;101701.75;12175368;19;20050;-83
2022/12/04 11:03:24;;;;;;;31.95;17.00;;;5.60;61.40;;;4.16;63.82;101698.31;12168609;19;20021;-83
2022/12/04 11:07:42;;;;;;;36.70;17.10;;;5.60;61.10;;;4.14;64.01;101697.47;12157825;19;20018;-84
2022/12/04 11:11:43;;;;;;;36.17;18.67;;;5.60;61.10;;;4.19;63.76;101690.50;12163378;19;21768;-83
2022/12/04 11:15:57;;;;;;;37.25;17.85;;;5.60;61.30;;;4.13;63.68;101685.41;12162795;19;20311;-84
2022/12/04 11:20:14;;;;;;;37.40;19.30;;;5.70;61.10;;;4.22;63.86;101700.81;12162750;19;20488;-84
2022/12/04 11:24:31;;;;;;;38.53;18.25;;;5.70;61.10;;;4.19;63.84;101686.19;12155405;19;20018;-85
2022/12/04 11:28:35;;;;;;;31.65;16.52;;;5.70;61.20;;;4.26;63.67;101692.13;12161970;19;20052;-84
2022/12/04 11:32:38;;;;;;;32.60;17.35;;;5.70;61.00;;;4.20;63.95;101684.47;12158499;19;20057;-84
2022/12/04 11:36:41;;;;;;;32.67;16.10;;;5.80;61.00;;;4.17;63.99;101672.44;12151824;19;20306;-83
2022/12/04 11:40:52;;;;;;;42.28;21.55;;;5.70;60.90;;;4.21;63.71;101675.81;12156651;19;20586;-84
2022/12/04 11:45:17;;;;;;;40.65;20.60;;;5.70;61.20;;;4.21;63.86;101662.88;12155515;19;20018;-84
2022/12/04 11:49:25;;;;;;;34.13;18.60;;;5.80;61.50;;;4.29;63.84;101679.16;12155302;19;20329;-84
2022/12/04 11:53:48;;;;;;;35.58;18.75;;;5.70;61.30;;;4.36;63.93;101687.69;12157735;19;20645;-84
2022/12/04 11:58:36;;;;;;;36.65;18.17;;;5.80;61.20;;;4.35;63.78;101668.75;12152634;19;20026;-83
2022/12/04 12:02:40;;;;;;;34.83;16.10;;;5.80;61.20;;;4.42;63.78;101675.53;12152173;19;20372;-84
2022/12/04 12:07:18;;;;;;;33.85;16.60;;;5.80;61.00;;;4.42;63.97;101677.25;12174112;19;20114;-84
2022/12/04 12:11:34;;;;;;;36.17;19.10;;;5.80;61.00;;;4.42;63.67;101661.75;12182241;19;20035;-84
2022/12/04 12:16:01;;;;;;;45.70;22.52;;;5.80;61.40;;;4.44;63.83;101665.16;12175293;19;20030;-83
2022/12/04 12:20:34;;;;;;;49.55;23.85;;;5.90;61.70;;;4.42;63.64;101665.16;12184013;19;20041;-84
2022/12/04 12:25:15;;;;;;;38.90;18.42;;;5.80;61.80;;;4.44;63.78;101670.34;12181983;19;20035;-85
2022/12/04 12:30:07;;;;;;;37.53;18.30;;;5.80;61.30;;;4.42;63.82;101657.41;12184823;19;20015;-85
2022/12/04 12:34:40;;;;;;;44.42;20.38;;;5.90;61.60;;;4.33;63.75;101647.22;12182243;19;20307;-83
2022/12/04 12:38:49;;;;;;;42.85;19.92;;;5.90;61.80;;;4.42;63.96;101656.56;12181197;19;20022;-83
2022/12/04 12:42:56;;;;;;;42.60;18.70;;;5.90;61.70;;;4.31;63.97;101642.94;12181811;19;20014;-85
2022/12/04 12:47:30;;;;;;;46.63;20.42;;;5.90;61.70;;;4.44;63.79;101671.19;12174693;19;20029;-84
2022/12/04 12:52:11;;;;;;;43.22;19.38;;;6.00;62.00;;;4.38;63.80;101654.91;12168036;19;20871;-84
2022/12/04 12:56:17;;;;;;;32.78;15.25;;;5.90;61.80;;;4.18;64.07;101611.25;12173481;19;20025;-84
2022/12/04 13:00:21;;;;;;;41.15;18.83;;;5.90;61.50;;;4.52;64.12;101668.50;12183086;19;20723;-85
2022/12/04 13:04:41;;;;;;;35.08;15.27;;;6.00;61.60;;;4.46;63.98;101662.56;12184323;19;20125;-84
2022/12/04 13:09:25;;;;;;;37.55;17.15;;;6.00;61.40;;;4.51;63.90;101653.88;12183092;19;20014;-83
2022/12/04 13:13:31;;;;;;;41.55;19.85;;;6.00;61.30;;;4.49;63.75;101647.84;12184821;19;20029;-84
2022/12/04 13:17:38;;;;;;;49.97;22.05;;;6.00;61.60;;;4.44;63.78;101634.97;12165137;19;20273;-84
2022/12/04 13:21:43;;;;;;;45.58;20.63;;;6.00;61.80;;;4.61;63.93;101649.38;12170077;19;20011;-84
2022/12/04 13:25:54;;;;;;;46.53;21.13;;;6.00;61.80;;;4.61;64.05;101659.72;12165988;19;20015;-86
2022/12/04 13:30:11;;;;;;;55.13;23.38;;;6.00;61.70;;;4.61;64.04;101651.97;12159465;19;20296;-85
2022/12/04 13:35:05;;;;;;;55.10;22.50;;;6.00;62.00;;;4.53;63.94;101622.78;12155594;19;20998;-85
2022/12/04 13:39:21;;;;;;;44.03;20.10;;;6.00;62.40;;;4.62;64.13;101627.84;12162568;19;20415;-84
2022/12/04 13:43:41;;;;;;;51.17;20.48;;;6.00;62.00;;;4.63;64.00;101614.00;12165379;19;20022;-85
2022/12/04 13:47:43;;;;;;;51.60;22.67;;;6.10;62.30;;;4.63;64.15;101608.84;12158704;19;20874;-85
2022/12/04 13:51:48;;;;;;;41.90;19.50;;;6.00;62.20;;;4.57;64.04;101604.63;12161133;19;20019;-85
2022/12/04 13:55:58;;;;;;;53.57;21.43;;;6.10;62.00;;;4.65;63.96;101617.44;12162870;19;20018;-85
2022/12/04 14:00:27;;;;;;;54.03;22.45;;;6.10;62.30;;;4.66;63.93;101603.59;12157291;19;20014;-86
2022/12/04 14:04:43;;;;;;;52.88;20.15;;;6.10;62.30;;;4.62;64.08;101601.97;12160844;19;20034;-85
2022/12/04 14:08:45;;;;;;;46.30;19.00;;;6.10;62.10;;;4.64;64.21;101605.34;12164886;19;21448;-85
2022/12/04 14:13:16;;;;;;;57.20;23.38;;;6.10;62.20;;;4.66;63.97;101603.59;12158237;19;20023;-85
2022/12/04 14:17:25;;;;;;;56.45;23.83;;;6.10;62.50;;;4.73;64.05;101622.50;12156513;19;20014;-84
2022/12/04 14:21:44;;;;;;;62.22;24.50;;;6.10;62.50;;;4.74;64.19;101616.41;12161685;19;20014;-85
2022/12/04 14:25:46;;;;;;;56.17;26.10;;;6.10;62.60;;;4.66;64.30;101603.59;12153951;19;20018;-85
2022/12/04 14:29:53;;;;;;;51.05;22.45;;;6.10;62.90;;;4.75;64.12;101624.16;12155971;19;20481;-85
2022/12/04 14:34:03;;;;;;;61.42;25.65;;;6.10;62.60;;;4.77;64.13;101616.38;12156399;19;20467;-84
2022/12/04 14:38:06;;;;;;;63.42;24.10;;;6.20;63.00;;;4.74;64.24;101627.63;12159408;19;20015;-84
2022/12/04 14:42:20;;;;;;;68.90;27.50;;;6.20;62.80;;;4.72;64.01;101613.84;12159210;19;20036;-84
2022/12/04 14:46:46;;;;;;;93.80;32.63;;;6.20;62.90;;;4.84;64.20;101618.81;12156825;19;20032;-85
2022/12/04 14:51:10;;;;;;;61.42;25.92;;;6.20;63.50;;;4.77;64.22;101614.63;12157986;19;20105;-85
2022/12/04 14:55:40;;;;;;;64.15;24.20;;;6.20;63.10;;;4.82;64.29;101610.22;12150929;19;20011;-85
2022/12/04 14:59:51;;;;;;;50.78;22.13;;;6.20;63.00;;;4.79;64.18;101610.28;12158840;19;20026;-85
2022/12/04 15:03:56;;;;;;;63.92;24.35;;;6.30;62.90;;;4.74;64.31;101591.41;12155326;19;20018;-85
2022/12/04 15:08:03;;;;;;;62.05;26.55;;;6.20;62.90;;;4.61;64.19;101569.19;12155258;19;20014;-85
2022/12/04 15:12:34;;;;;;;61.35;25.17;;;6.30;63.20;;;4.88;64.17;101615.28;12156630;19;20014;-85
2022/12/04 15:16:35;;;;;;;66.22;25.42;;;6.20;63.00;;;4.87;64.13;101603.25;12154298;19;20125;-85
2022/12/04 15:20:57;;;;;;;69.82;27.98;;;6.30;63.30;;;4.87;64.36;101612.75;12153687;19;20018;-85
2022/12/04 15:24:59;;;;;;;67.85;27.05;;;6.30;63.30;;;4.86;64.15;101611.03;12153790;19;20273;-85
2022/12/04 15:29:04;;;;;;;55.95;23.45;;;6.30;63.50;;;4.90;64.18;101623.03;12154262;19;20021;-85
2022/12/04 15:33:07;;;;;;;55.37;22.37;;;6.40;63.20;;;4.85;64.24;101607.59;12154559;19;20040;-85
2022/12/04 15:37:27;;;;;;;58.70;23.35;;;6.50;63.20;;;4.91;64.30;101605.78;12145713;19;21009;-86
2022/12/04 15:41:36;;;;;;;53.08;20.83;;;6.40;62.90;;;5.01;64.48;101626.28;12152454;19;20018;-86
2022/12/04 15:45:37;;;;;;;50.47;20.90;;;6.40;63.00;;;4.98;64.47;101610.81;12152690;19;20902;-86
2022/12/04 15:49:39;;;;;;;70.50;26.90;;;6.40;63.00;;;5.03;64.41;101619.38;12156186;19;20023;-86
2022/12/04 15:53:45;;;;;;;56.55;21.38;;;6.40;63.40;;;5.03;64.29;101616.78;12155131;19;20021;-86
2022/12/04 15:57:57;;;;;;;51.35;22.23;;;6.50;63.00;;;5.03;64.44;101614.19;12154303;19;20015;-85
2022/12/04 16:02:20;;;;;;;54.42;23.75;;;6.40;63.00;;;5.01;64.25;101604.75;12155542;19;20014;-85
2022/12/04 16:06:32;;;;;;;53.17;23.05;;;6.40;63.80;;;5.00;64.19;101598.72;12152408;19;20725;-87
2022/12/04 16:10:34;;;;;;;55.10;21.95;;;6.50;63.20;;;4.99;64.58;101602.16;12155282;19;20025;-85
2022/12/04 16:14:36;;;;;;;48.08;20.20;;;6.50;63.00;;;5.15;64.28;101623.44;12154065;19;20024;-85
2022/12/04 16:18:39;;;;;;;66.95;25.85;;;6.50;63.00;;;5.16;64.44;101625.19;12157051;19;20034;-86
2022/12/04 16:22:41;;;;;;;51.00;20.52;;;6.50;63.10;;;5.15;64.51;101628.63;12154203;19;20653;-85
2022/12/04 16:26:43;;;;;;;53.40;22.08;;;6.50;62.90;;;5.20;64.30;101631.16;12148111;19;20014;-86
2022/12/04 16:30:45;;;;;;;59.22;23.92;;;6.60;63.20;;;5.14;64.39;101613.16;12149294;19;20039;-86
2022/12/04 16:34:48;;;;;;;68.43;24.27;;;6.60;63.30;;;5.08;64.34;101603.75;12147026;19;20728;-87
2022/12/04 16:38:50;;;;;;;58.80;23.08;;;6.50;63.40;;;5.08;64.51;101603.75;12150416;19;20010;-86
2022/12/04 16:42:51;;;;;;;56.35;23.10;;;6.60;63.60;;;5.11;64.30;101608.88;12153299;19;20034;-86
2022/12/04 16:46:53;;;;;;;59.63;23.60;;;6.80;63.60;;;5.18;64.59;101614.78;12151301;19;20387;-87
2022/12/04 16:50:55;;;;;;;66.13;26.73;;;6.60;63.60;;;5.18;64.52;101618.22;12157782;19;20046;-87
2022/12/04 16:54:56;;;;;;;72.05;28.30;;;6.80;64.30;;;4.83;64.59;101547.28;12163090;19;20010;-87
2022/12/04 16:58:58;;;;;;;63.85;27.15;;;6.60;64.20;;;4.96;64.52;101554.78;12162319;19;20018;-87
2022/12/04 17:03:03;;;;;;;66.85;27.02;;;6.60;64.10;;;5.20;64.47;101600.91;12157538;19;20591;-87
2022/12/04 17:07:04;;;;;;;54.40;23.55;;;6.60;64.20;;;5.11;64.50;101575.22;12158896;19;20786;-87
2022/12/04 17:11:08;;;;;;;41.53;19.08;;;6.60;63.80;;;5.28;64.50;101600.78;12162441;19;20445;-87
2022/12/04 17:15:11;;;;;;;63.00;26.08;;;6.60;63.60;;;5.27;64.48;101592.16;12161034;19;20049;-87
2022/12/04 17:19:13;;;;;;;68.47;27.00;;;6.60;64.30;;;4.97;64.70;101540.94;12162582;19;20368;-87
2022/12/04 17:23:15;;;;;;;57.92;24.13;;;6.70;64.20;;;5.23;64.80;101589.66;12158303;19;20026;-87